Time;durP1;ratioP1;P1;durP2;ratioP2;P2;SDS_P1;SDS_P2;PMS_P1;PMS_P2;Temp;Humidity;BMP_temperature;BMP_pressure;BME280_temperature;BME280_humidity;BME280_pressure;Samples;Min_cycle;Max_cycle;Signal;HPM_P1;HPM_P2
2022/05/10 00:01:03;;;;;;;8.27;7.67;;;22.30;85.50;;;;;;5053729;28;20440;-62
2022/05/10 00:03:32;;;;;;;8.27;7.63;;;22.20;85.10;;;;;;5053520;28;20800;-60
2022/05/10 00:05:59;;;;;;;9.20;8.60;;;22.20;85.10;;;;;;5053179;28;20460;-61
2022/05/10 00:08:26;;;;;;;7.47;6.97;;;22.20;85.10;;;;;;5053306;28;20471;-58
2022/05/10 00:10:54;;;;;;;7.47;6.97;;;22.20;85.10;;;;;;5060244;22;20481;-63
2022/05/10 00:13:21;;;;;;;8.80;7.97;;;22.20;85.00;;;;;;5033058;28;20445;-62
2022/05/10 00:15:49;;;;;;;9.30;8.47;;;22.20;85.40;;;;;;5033157;28;20449;-63
2022/05/10 00:18:18;;;;;;;7.80;7.30;;;22.10;85.70;;;;;;5033942;28;20813;-60
2022/05/10 00:20:47;;;;;;;7.90;7.33;;;22.10;85.90;;;;;;5033329;28;20476;-61
2022/05/10 00:23:13;;;;;;;8.10;7.37;;;22.10;86.00;;;;;;5033320;28;20800;-63
2022/05/10 00:25:41;;;;;;;7.30;6.80;;;22.10;86.20;;;;;;5033163;28;20449;-64
2022/05/10 00:28:08;;;;;;;8.10;6.93;;;22.10;86.10;;;;;;5033133;28;20481;-63
2022/05/10 00:30:35;;;;;;;6.77;6.37;;;22.10;86.10;;;;;;5033158;28;20476;-63
2022/05/10 00:33:03;;;;;;;7.90;7.40;;;22.00;86.00;;;;;;5033055;28;20452;-62
2022/05/10 00:35:34;;;;;;;7.20;6.70;;;22.00;86.00;;;;;;5013372;28;20453;-63
2022/05/10 00:38:04;;;;;;;8.13;7.57;;;22.00;85.80;;;;;;5013367;28;20785;-63
2022/05/10 00:40:34;;;;;;;7.63;7.03;;;22.00;85.60;;;;;;5013311;28;20473;-63
2022/05/10 00:43:07;;;;;;;7.13;6.53;;;22.00;85.60;;;;;;5013337;28;20541;-63
2022/05/10 00:45:41;;;;;;;8.60;8.00;;;22.00;85.20;;;;;;5013315;28;20449;-63
2022/05/10 00:48:14;;;;;;;8.47;7.67;;;22.00;85.00;;;;;;5013063;28;20489;-64
2022/05/10 00:50:46;;;;;;;8.60;8.00;;;22.00;84.70;;;;;;5013026;28;20466;-62
2022/05/10 00:53:19;;;;;;;8.03;7.43;;;22.00;84.70;;;;;;5014048;28;20823;-64
2022/05/10 00:55:52;;;;;;;7.20;6.70;;;22.00;84.90;;;;;;5032711;28;20502;-64
2022/05/10 00:58:27;;;;;;;7.97;7.37;;;21.90;84.40;;;;;;5032653;28;20464;-64
2022/05/10 01:00:56;;;;;;;7.03;6.60;;;21.90;84.70;;;;;;5032666;28;20639;-64
2022/05/10 01:03:29;;;;;;;7.00;6.60;;;21.90;84.00;;;;;;5032436;28;20927;-63
2022/05/10 01:06:02;;;;;;;7.60;7.00;;;21.90;83.80;;;;;;5032320;28;21202;-63
2022/05/10 01:08:36;;;;;;;7.57;7.07;;;21.90;84.10;;;;;;5032542;28;20527;-65
2022/05/10 01:11:08;;;;;;;6.93;6.33;;;21.90;84.30;;;;;;5032302;28;20483;-65
2022/05/10 01:13:39;;;;;;;6.90;6.40;;;21.80;84.40;;;;;;5032010;28;20871;-65
2022/05/10 01:16:09;;;;;;;7.30;6.80;;;21.90;84.40;;;;;;5032328;28;20478;-63
2022/05/10 01:18:39;;;;;;;8.37;7.77;;;21.80;83.90;;;;;;5032292;28;20452;-64
2022/05/10 01:21:29;;;;;;;7.70;7.10;;;21.80;83.50;;;;;;5031756;28;20465;-64
2022/05/10 01:24:10;;;;;;;7.73;7.03;;;21.90;83.30;;;;;;5032368;28;20879;-63
2022/05/10 01:26:51;;;;;;;7.30;6.70;;;21.80;83.30;;;;;;5032233;28;20491;-65
2022/05/10 01:29:24;;;;;;;8.10;7.50;;;21.80;83.00;;;;;;5032013;28;20858;-64
2022/05/10 01:34:38;;;;;;;7.73;7.13;;;21.80;83.00;;;;;;5012007;28;20791;-65
2022/05/10 01:37:09;;;;;;;7.93;7.13;;;21.80;83.00;;;;;;5012186;28;20790;-65
2022/05/10 01:39:42;;;;;;;6.93;6.53;;;21.80;83.10;;;;;;5012307;28;20458;-63
2022/05/10 01:42:14;;;;;;;7.60;7.00;;;21.80;83.20;;;;;;5029881;28;20440;-64
2022/05/10 01:44:46;;;;;;;6.73;6.20;;;21.70;83.50;;;;;;5031971;28;20931;-64
2022/05/10 01:47:16;;;;;;;7.70;7.07;;;21.70;83.30;;;;;;5031667;28;20445;-65
2022/05/10 01:49:47;;;;;;;7.10;6.60;;;21.70;83.90;;;;;;5031663;28;20509;-63
2022/05/10 01:52:19;;;;;;;7.53;6.83;;;21.70;84.00;;;;;;5031683;28;20453;-65
2022/05/10 01:55:02;;;;;;;7.10;6.50;;;21.60;84.20;;;;;;5031805;28;20448;-65
2022/05/10 01:57:31;;;;;;;6.83;6.43;;;21.60;84.50;;;;;;5031558;28;20445;-64
2022/05/10 02:00:08;;;;;;;7.57;6.97;;;21.60;84.60;;;;;;5031663;28;20461;-65
2022/05/10 02:02:39;;;;;;;8.40;7.80;;;21.60;84.90;;;;;;5011944;28;20457;-65
2022/05/10 02:05:12;;;;;;;6.60;6.10;;;21.60;85.10;;;;;;5011839;28;20449;-65
2022/05/10 02:07:42;;;;;;;6.73;6.33;;;21.60;85.20;;;;;;5011721;28;20461;-64
2022/05/10 02:10:16;;;;;;;7.60;7.00;;;21.60;85.30;;;;;;5025879;28;20481;-63
2022/05/10 02:12:49;;;;;;;7.50;7.00;;;21.50;85.40;;;;;;5031690;28;20440;-65
2022/05/10 02:15:22;;;;;;;7.00;6.27;;;21.50;85.70;;;;;;5031593;28;20449;-65
2022/05/10 02:17:54;;;;;;;7.73;6.80;;;21.50;85.80;;;;;;5031345;28;20444;-65
2022/05/10 02:20:28;;;;;;;7.90;7.17;;;21.50;86.60;;;;;;5031289;28;20547;-64
2022/05/10 02:23:00;;;;;;;7.30;6.60;;;21.50;86.10;;;;;;5031585;28;20449;-65
2022/05/10 02:25:33;;;;;;;7.70;7.20;;;21.50;86.20;;;;;;5031625;28;20784;-65
2022/05/10 02:28:06;;;;;;;7.50;6.70;;;21.50;86.40;;;;;;5031117;28;20483;-65
2022/05/10 02:30:36;;;;;;;7.27;6.87;;;21.40;86.30;;;;;;5031115;28;20476;-66
2022/05/10 02:33:08;;;;;;;7.03;6.53;;;21.40;86.30;;;;;;5031258;28;20450;-65
2022/05/10 02:35:42;;;;;;;7.67;6.97;;;21.40;86.60;;;;;;5031473;28;20941;-66
2022/05/10 02:38:10;;;;;;;7.20;6.70;;;21.40;86.70;;;;;;5031319;28;20836;-65
2022/05/10 02:40:41;;;;;;;7.93;7.43;;;21.40;86.50;;;;;;5030935;28;20469;-65
2022/05/10 02:43:12;;;;;;;7.50;6.90;;;21.40;86.40;;;;;;5031345;28;20445;-65
2022/05/10 02:45:42;;;;;;;7.37;6.77;;;21.40;85.80;;;;;;5031228;28;20444;-65
2022/05/10 02:48:15;;;;;;;7.17;6.67;;;21.40;85.50;;;;;;5031108;28;20848;-65
2022/05/10 02:50:42;;;;;;;6.87;6.23;;;21.40;85.10;;;;;;5030969;28;20475;-65
2022/05/10 02:53:09;;;;;;;5.37;4.97;;;21.40;84.70;;;;;;5031243;28;20448;-65
2022/05/10 02:55:41;;;;;;;7.83;7.23;;;21.40;84.50;;;;;;5031296;28;20456;-65
2022/05/10 02:58:16;;;;;;;5.80;5.40;;;21.30;84.80;;;;;;5031068;28;20927;-64
2022/05/10 03:00:44;;;;;;;7.07;6.57;;;21.30;84.80;;;;;;5030897;28;20827;-65
2022/05/10 03:03:16;;;;;;;7.50;7.00;;;21.30;84.80;;;;;;5031138;28;20447;-65
2022/05/10 03:05:42;;;;;;;6.93;6.43;;;21.30;84.80;;;;;;5031045;28;20437;-65
2022/05/10 03:08:09;;;;;;;7.43;6.83;;;21.30;85.10;;;;;;5030927;28;20921;-66
2022/05/10 03:10:36;;;;;;;6.87;6.37;;;21.30;85.20;;;;;;5030644;28;20477;-66
2022/05/10 03:13:03;;;;;;;6.10;5.70;;;21.30;85.30;;;;;;5031034;28;20445;-65
2022/05/10 03:15:30;;;;;;;7.20;6.50;;;21.30;85.40;;;;;;5031825;28;20453;-65
2022/05/10 03:17:59;;;;;;;6.97;6.47;;;21.20;85.40;;;;;;5034473;28;20447;-65
2022/05/10 03:20:25;;;;;;;6.60;6.10;;;21.20;85.30;;;;;;5034244;28;20940;-65
2022/05/10 03:22:52;;;;;;;7.33;6.73;;;21.20;85.20;;;;;;5034675;28;20441;-65
2022/05/10 03:25:20;;;;;;;6.57;6.10;;;21.20;84.90;;;;;;5034392;28;20456;-65
2022/05/10 03:27:47;;;;;;;6.60;6.20;;;21.20;84.90;;;;;;5034297;28;20445;-66
2022/05/10 03:30:14;;;;;;;5.90;5.47;;;21.30;84.70;;;;;;5033558;28;20481;-65
2022/05/10 03:32:41;;;;;;;6.43;6.00;;;21.20;84.60;;;;;;5034348;28;20810;-66
2022/05/10 03:35:15;;;;;;;6.63;6.23;;;21.20;84.30;;;;;;5034287;28;20444;-65
2022/05/10 03:37:42;;;;;;;6.43;6.03;;;21.20;84.10;;;;;;5034101;28;20455;-66
2022/05/10 03:40:10;;;;;;;5.30;5.00;;;21.30;84.00;;;;;;5033966;28;20468;-65
2022/05/10 03:42:43;;;;;;;5.60;5.20;;;21.30;84.30;;;;;;5034229;28;20449;-65
2022/05/10 03:45:11;;;;;;;5.77;5.30;;;21.40;84.60;;;;;;5034205;28;20453;-65
2022/05/10 03:47:38;;;;;;;6.43;6.00;;;21.40;84.80;;;;;;5033859;28;20441;-65
2022/05/10 03:50:07;;;;;;;5.43;4.70;;;21.40;84.50;;;;;;5033666;28;20484;-65
2022/05/10 03:52:35;;;;;;;5.70;5.30;;;21.40;84.40;;;;;;5034037;28;20471;-65
2022/05/10 03:55:03;;;;;;;5.77;5.47;;;21.50;84.30;;;;;;5034027;28;20452;-64
2022/05/10 03:57:30;;;;;;;5.50;5.00;;;21.50;84.00;;;;;;5034027;28;20506;-64
2022/05/10 03:59:56;;;;;;;5.97;5.57;;;21.50;83.90;;;;;;5033516;28;20854;-64
2022/05/10 04:02:23;;;;;;;5.90;5.50;;;21.50;83.80;;;;;;5033821;28;20445;-63
2022/05/10 04:04:50;;;;;;;5.47;5.10;;;21.50;84.40;;;;;;5033789;28;20441;-64
2022/05/10 04:07:17;;;;;;;5.93;5.43;;;21.50;83.50;;;;;;5033499;28;20811;-66
2022/05/10 04:09:45;;;;;;;6.87;5.87;;;21.50;83.30;;;;;;5033153;28;20485;-64
2022/05/10 04:12:12;;;;;;;5.40;5.10;;;21.50;83.20;;;;;;5033683;28;20536;-65
2022/05/10 04:14:39;;;;;;;6.30;5.93;;;21.50;82.80;;;;;;5033627;28;20441;-62
2022/05/10 04:17:06;;;;;;;5.63;5.20;;;21.60;82.50;;;;;;5033107;28;20460;-65
2022/05/10 04:19:32;;;;;;;6.57;5.60;;;21.60;82.50;;;;;;5032916;28;20457;-57
2022/05/10 04:21:59;;;;;;;6.40;5.80;;;21.60;85.10;;;;;;5033019;28;20448;-60
2022/05/10 04:24:26;;;;;;;6.93;5.73;;;21.70;84.10;;;;;;5033577;28;20457;-59
2022/05/10 04:26:54;;;;;;;5.90;5.40;;;21.70;82.80;;;;;;5033057;28;20451;-59
2022/05/10 04:29:21;;;;;;;5.03;4.63;;;21.80;82.00;;;;;;5033180;28;20485;-58
2022/05/10 04:31:47;;;;;;;4.90;4.60;;;21.80;81.00;;;;;;5033227;28;20444;-61
2022/05/10 04:34:14;;;;;;;5.23;4.83;;;21.80;80.50;;;;;;5033248;28;20454;-60
2022/05/10 04:36:41;;;;;;;6.77;6.07;;;21.80;80.00;;;;;;5032900;28;20448;-56
2022/05/10 04:39:08;;;;;;;4.97;4.67;;;21.90;79.80;;;;;;5033229;28;20461;-61
2022/05/10 04:41:37;;;;;;;4.60;4.27;;;21.90;79.40;;;;;;5033029;28;20441;-60
2022/05/10 04:44:07;;;;;;;6.33;5.73;;;21.90;79.00;;;;;;5033019;28;20456;-57
2022/05/10 04:46:36;;;;;;;4.67;4.33;;;21.90;78.80;;;;;;5032792;28;20942;-60
2022/05/10 04:49:04;;;;;;;4.70;4.40;;;21.90;78.50;;;;;;5032814;28;20531;-59
2022/05/10 04:51:30;;;;;;;5.97;5.33;;;21.90;78.30;;;;;;5032856;28;20445;-61
2022/05/10 04:53:58;;;;;;;5.47;5.07;;;21.90;78.00;;;;;;5032948;28;20444;-59
2022/05/10 04:56:24;;;;;;;4.63;4.33;;;21.90;77.80;;;;;;5032597;28;20445;-59
2022/05/10 04:58:54;;;;;;;5.17;4.87;;;21.90;77.50;;;;;;5032586;28;20448;-60
2022/05/10 05:01:26;;;;;;;5.50;5.03;;;21.90;77.30;;;;;;5032668;28;20480;-60
2022/05/10 05:03:55;;;;;;;5.63;5.23;;;21.90;77.10;;;;;;5032753;28;20445;-59
2022/05/10 05:06:24;;;;;;;4.80;4.47;;;21.90;76.90;;;;;;5032405;28;20441;-59
2022/05/10 05:08:51;;;;;;;5.07;4.67;;;21.90;76.80;;;;;;5032255;28;20477;-62
2022/05/10 05:11:18;;;;;;;4.83;4.53;;;21.90;76.60;;;;;;5032502;28;20456;-59
2022/05/10 05:13:45;;;;;;;4.83;4.50;;;21.90;76.50;;;;;;5032530;28;20460;-60
2022/05/10 05:16:12;;;;;;;4.67;4.33;;;21.90;76.40;;;;;;5032280;28;20445;-59
2022/05/10 05:18:40;;;;;;;5.57;5.07;;;21.90;76.20;;;;;;5032237;28;20453;-61
2022/05/10 05:21:07;;;;;;;4.17;3.90;;;22.00;76.30;;;;;;5032309;28;20468;-58
2022/05/10 05:23:33;;;;;;;5.80;5.23;;;22.00;76.10;;;;;;5032302;28;20877;-59
2022/05/10 05:26:00;;;;;;;5.87;5.37;;;22.00;76.00;;;;;;5032114;28;20445;-59
2022/05/10 05:28:27;;;;;;;4.80;4.40;;;22.00;75.90;;;;;;5032048;28;20452;-61
2022/05/10 05:30:54;;;;;;;4.93;4.33;;;22.00;75.80;;;;;;5032039;28;20834;-58
2022/05/10 05:33:21;;;;;;;3.93;3.73;;;22.00;75.70;;;;;;5032051;28;20966;-59
2022/05/10 05:35:49;;;;;;;4.63;4.37;;;22.00;75.60;;;;;;5031803;28;20452;-59
2022/05/10 05:38:16;;;;;;;3.93;3.73;;;22.00;75.60;;;;;;5031268;28;20460;-58
2022/05/10 05:40:43;;;;;;;4.63;4.33;;;22.00;75.50;;;;;;5031812;28;20480;-60
2022/05/10 05:43:18;;;;;;;4.53;4.13;;;22.00;75.50;;;;;;5031788;28;20452;-59
2022/05/10 05:45:45;;;;;;;4.67;4.47;;;22.00;75.40;;;;;;5031937;28;20506;-59
2022/05/10 05:48:12;;;;;;;3.60;3.50;;;22.00;75.40;;;;;;5031864;28;20445;-61
2022/05/10 05:50:39;;;;;;;4.10;3.90;;;22.00;75.20;;;;;;5031624;28;21022;-58
2022/05/10 05:53:07;;;;;;;3.43;3.23;;;22.00;75.20;;;;;;5031778;28;20445;-60
2022/05/10 05:55:34;;;;;;;4.20;3.90;;;22.00;75.10;;;;;;5031766;28;20445;-59
2022/05/10 05:58:02;;;;;;;4.70;4.40;;;22.00;75.00;;;;;;5031657;28;20528;-60
2022/05/10 06:00:29;;;;;;;3.47;3.33;;;22.00;75.00;;;;;;5031626;28;20472;-59
2022/05/10 06:02:56;;;;;;;4.07;3.87;;;22.00;74.80;;;;;;5031756;28;20463;-61
2022/05/10 06:05:25;;;;;;;5.03;4.60;;;22.00;74.90;;;;;;5031702;28;20445;-59
2022/05/10 06:07:52;;;;;;;3.80;3.50;;;22.00;75.00;;;;;;5031457;28;20457;-59
2022/05/10 06:10:20;;;;;;;4.57;4.20;;;22.00;74.90;;;;;;5053575;22;20500;-56
2022/05/10 06:12:47;;;;;;;3.67;3.47;;;22.00;74.70;;;;;;5024124;28;20456;-55
2022/05/10 06:15:16;;;;;;;3.77;3.40;;;22.00;74.70;;;;;;5031980;28;20441;-59
2022/05/10 06:17:44;;;;;;;4.30;4.10;;;22.00;75.40;;;;;;5031531;28;20456;-59
2022/05/10 06:20:13;;;;;;;3.40;3.30;;;22.00;74.50;;;;;;5031827;28;20833;-57
2022/05/10 06:22:44;;;;;;;4.17;3.87;;;22.00;74.30;;;;;;5031786;28;20449;-58
2022/05/10 06:25:13;;;;;;;4.03;3.73;;;22.00;74.40;;;;;;5031856;28;20445;-57
2022/05/10 06:27:41;;;;;;;3.43;3.23;;;22.00;74.10;;;;;;5031567;28;20472;-58
2022/05/10 06:30:09;;;;;;;4.10;3.80;;;22.00;74.20;;;;;;5031611;28;20523;-55
2022/05/10 06:32:36;;;;;;;4.30;4.00;;;22.00;74.30;;;;;;5031752;28;20453;-59
2022/05/10 06:35:03;;;;;;;4.20;3.87;;;22.00;74.20;;;;;;5031847;28;20456;-58
2022/05/10 06:40:17;;;;;;;3.90;3.70;;;22.00;73.80;;;;;;5031607;28;20444;-58
2022/05/10 06:42:45;;;;;;;3.53;3.33;;;22.00;73.80;;;;;;5031433;28;20451;-57
2022/05/10 06:45:14;;;;;;;3.97;3.77;;;22.00;73.70;;;;;;5031477;28;20448;-55
2022/05/10 06:47:42;;;;;;;3.73;3.53;;;22.00;73.80;;;;;;5031314;28;20444;-58
2022/05/10 06:50:12;;;;;;;4.00;3.70;;;22.00;73.50;;;;;;5033378;28;20495;-54
2022/05/10 06:52:40;;;;;;;4.00;3.80;;;22.00;73.60;;;;;;5035406;28;20476;-59
2022/05/10 06:55:09;;;;;;;3.53;3.33;;;22.00;73.50;;;;;;5035367;28;20523;-55
2022/05/10 06:57:36;;;;;;;3.97;3.77;;;22.00;73.30;;;;;;5035008;28;20456;-55
2022/05/10 07:00:05;;;;;;;3.00;2.90;;;22.00;73.30;;;;;;5035123;28;20484;-56
2022/05/10 07:02:32;;;;;;;3.63;3.43;;;22.00;73.40;;;;;;5035237;28;20787;-58
2022/05/10 07:04:59;;;;;;;3.67;3.47;;;22.00;73.30;;;;;;5035181;28;20449;-59
2022/05/10 07:07:27;;;;;;;3.67;3.43;;;22.00;73.30;;;;;;5034809;28;20809;-59
2022/05/10 07:09:54;;;;;;;4.50;3.70;;;22.10;73.30;;;;;;5034880;28;20484;-58
2022/05/10 07:12:21;;;;;;;3.50;3.30;;;22.10;73.30;;;;;;5035101;28;20492;-57
2022/05/10 07:14:48;;;;;;;3.00;2.90;;;22.10;73.30;;;;;;5035003;28;20456;-59
2022/05/10 07:17:16;;;;;;;3.67;3.47;;;22.10;73.20;;;;;;5034878;28;20468;-58
2022/05/10 07:19:43;;;;;;;3.20;3.00;;;22.10;73.10;;;;;;5034810;28;20457;-59
2022/05/10 07:22:10;;;;;;;3.70;3.50;;;22.10;73.10;;;;;;5034788;28;20448;-59
2022/05/10 07:24:37;;;;;;;3.97;3.77;;;22.10;73.00;;;;;;5034720;28;20946;-54
2022/05/10 07:27:04;;;;;;;5.60;3.53;;;22.10;72.90;;;;;;5034377;28;20449;-59
2022/05/10 07:29:31;;;;;;;3.00;2.90;;;22.10;73.00;;;;;;5034378;28;20902;-59
2022/05/10 07:31:58;;;;;;;4.13;3.93;;;22.10;72.90;;;;;;5034578;28;20958;-57
2022/05/10 07:34:26;;;;;;;3.30;3.10;;;22.10;72.90;;;;;;5034436;28;20448;-56
2022/05/10 07:36:53;;;;;;;3.47;3.27;;;22.10;72.80;;;;;;5034207;28;20452;-57
2022/05/10 07:39:21;;;;;;;3.70;3.50;;;22.10;72.80;;;;;;5034473;28;20456;-59
2022/05/10 07:41:51;;;;;;;3.20;3.00;;;22.10;72.70;;;;;;5034345;28;21013;-55
2022/05/10 07:44:18;;;;;;;3.17;3.00;;;22.10;72.80;;;;;;5034478;28;20530;-59
2022/05/10 07:46:45;;;;;;;3.57;3.37;;;22.10;72.70;;;;;;5034095;28;20451;-57
2022/05/10 07:49:12;;;;;;;3.93;3.73;;;22.10;73.40;;;;;;5034176;28;20441;-57
2022/05/10 07:51:40;;;;;;;3.10;2.90;;;22.10;72.50;;;;;;5034221;28;20885;-56
2022/05/10 07:54:07;;;;;;;3.10;2.90;;;22.10;72.50;;;;;;5034426;28;20445;-58
2022/05/10 07:56:33;;;;;;;3.73;3.53;;;22.10;72.60;;;;;;5034175;28;20449;-57
2022/05/10 07:59:00;;;;;;;3.33;3.23;;;22.10;72.60;;;;;;5034305;28;20452;-58
2022/05/10 08:01:28;;;;;;;3.40;3.30;;;22.10;72.40;;;;;;5033692;28;20449;-57
2022/05/10 08:03:54;;;;;;;3.30;3.10;;;22.10;72.50;;;;;;5034291;28;20453;-56
2022/05/10 08:06:21;;;;;;;3.67;3.47;;;22.10;72.50;;;;;;5033830;28;20452;-55
2022/05/10 08:08:49;;;;;;;3.73;3.50;;;22.10;72.30;;;;;;5033861;28;20532;-55
2022/05/10 08:11:16;;;;;;;3.80;3.60;;;22.10;72.40;;;;;;5033698;28;20488;-54
2022/05/10 08:13:43;;;;;;;2.70;2.60;;;22.20;72.40;;;;;;5034022;28;20837;-57
2022/05/10 08:16:10;;;;;;;3.57;3.47;;;22.20;72.30;;;;;;5033896;28;20454;-59
2022/05/10 08:18:39;;;;;;;3.47;3.30;;;22.20;72.40;;;;;;5033947;28;20460;-55
2022/05/10 08:21:06;;;;;;;3.03;2.83;;;22.20;72.10;;;;;;5033836;28;20465;-57
2022/05/10 08:23:35;;;;;;;2.97;2.77;;;22.20;72.20;;;;;;5033745;28;20457;-59
2022/05/10 08:26:04;;;;;;;3.43;3.27;;;22.20;72.10;;;;;;5033365;28;20449;-56
2022/05/10 08:28:34;;;;;;;3.63;3.33;;;22.20;72.20;;;;;;5033788;28;20455;-54
2022/05/10 08:31:02;;;;;;;3.10;3.00;;;22.20;72.10;;;;;;5033283;28;20491;-58
2022/05/10 08:33:31;;;;;;;3.67;3.47;;;22.20;72.10;;;;;;5033482;28;20872;-59
2022/05/10 08:35:59;;;;;;;3.27;3.10;;;22.20;72.00;;;;;;5033216;28;20975;-55
2022/05/10 08:38:27;;;;;;;3.53;3.37;;;22.20;71.90;;;;;;5033333;28;20974;-55
2022/05/10 08:40:59;;;;;;;2.77;2.53;;;22.20;71.90;;;;;;5033104;28;20977;-55
2022/05/10 08:43:31;;;;;;;3.37;3.17;;;22.20;71.70;;;;;;5033366;28;20784;-55
2022/05/10 08:45:58;;;;;;;3.17;3.07;;;22.20;71.80;;;;;;5033028;28;20449;-57
2022/05/10 08:48:28;;;;;;;2.90;2.80;;;22.20;71.70;;;;;;5032953;28;20449;-52
2022/05/10 08:50:56;;;;;;;3.00;2.90;;;22.20;71.60;;;;;;5032897;28;20989;-58
2022/05/10 08:53:24;;;;;;;3.70;3.50;;;22.20;71.60;;;;;;5032941;28;20515;-56
2022/05/10 08:55:54;;;;;;;3.03;2.93;;;22.30;71.70;;;;;;5032807;28;20441;-58
2022/05/10 08:58:43;;;;;;;2.90;2.80;;;22.20;71.50;;;;;;5032916;28;20453;-58
2022/05/10 09:01:14;;;;;;;2.97;2.77;;;22.30;71.50;;;;;;5032831;28;20465;-52
2022/05/10 09:03:47;;;;;;;3.57;3.37;;;22.30;71.50;;;;;;5032822;28;20449;-56
2022/05/10 09:06:23;;;;;;;3.57;3.47;;;22.30;71.50;;;;;;5032721;28;20957;-55
2022/05/10 09:09:01;;;;;;;3.20;3.00;;;22.30;71.50;;;;;;5032774;28;20440;-55
2022/05/10 09:11:34;;;;;;;3.20;3.10;;;22.30;71.50;;;;;;5032657;28;20480;-55
2022/05/10 09:14:02;;;;;;;3.03;2.87;;;22.30;71.40;;;;;;5031727;28;20452;-58
2022/05/10 09:16:28;;;;;;;3.90;3.70;;;22.30;71.30;;;;;;5032553;28;20456;-56
2022/05/10 09:18:55;;;;;;;3.00;2.90;;;22.30;71.30;;;;;;5032549;28;20460;-56
2022/05/10 09:21:25;;;;;;;2.67;2.57;;;22.30;71.20;;;;;;5032478;28;20821;-53
2022/05/10 09:24:09;;;;;;;2.83;2.73;;;22.30;71.20;;;;;;5032559;28;20537;-58
2022/05/10 09:26:38;;;;;;;2.87;2.77;;;22.30;71.20;;;;;;5032323;28;20452;-55
2022/05/10 09:29:15;;;;;;;3.80;3.60;;;22.30;71.10;;;;;;5032394;28;20445;-56
2022/05/10 09:37:19;;;;;;;2.93;2.73;;;22.40;71.10;;;;;;5032005;28;20424;-59
2022/05/10 09:39:49;;;;;;;3.07;2.87;;;22.40;71.10;;;;;;5032422;28;21016;-56
2022/05/10 09:42:27;;;;;;;3.03;2.90;;;22.30;71.00;;;;;;5032123;28;20485;-57
2022/05/10 09:45:03;;;;;;;2.77;2.67;;;22.40;71.20;;;;;;5032041;28;20459;-57
2022/05/10 09:47:31;;;;;;;2.83;2.70;;;22.40;71.30;;;;;;5031735;28;20934;-55
2022/05/10 09:50:16;;;;;;;3.00;2.90;;;22.40;72.00;;;;;;5031786;28;20469;-57
2022/05/10 09:52:43;;;;;;;2.63;2.53;;;22.40;71.10;;;;;;5031884;28;20449;-55
2022/05/10 09:55:16;;;;;;;2.83;2.63;;;22.40;71.00;;;;;;5031841;28;20445;-58
2022/05/10 09:57:43;;;;;;;2.90;2.77;;;22.40;71.00;;;;;;5031657;28;20441;-57
2022/05/10 10:00:15;;;;;;;2.90;2.80;;;22.40;71.00;;;;;;5031808;28;20476;-58
2022/05/10 10:02:43;;;;;;;2.70;2.60;;;22.40;70.90;;;;;;5031959;28;20441;-58
2022/05/10 10:05:22;;;;;;;2.30;2.20;;;22.40;70.80;;;;;;5031800;28;20456;-55
2022/05/10 10:07:53;;;;;;;3.07;2.93;;;22.40;71.10;;;;;;5031619;28;20453;-57
2022/05/10 10:10:25;;;;;;;2.70;2.60;;;22.40;70.80;;;;;;5031526;28;20481;-53
2022/05/10 10:12:52;;;;;;;3.00;2.87;;;22.50;70.70;;;;;;5031699;28;20445;-55
2022/05/10 10:15:25;;;;;;;3.10;3.00;;;22.40;70.70;;;;;;5031743;28;20441;-57
2022/05/10 10:17:54;;;;;;;3.27;3.17;;;22.50;70.60;;;;;;5031526;28;20441;-55
2022/05/10 10:20:35;;;;;;;2.60;2.50;;;22.50;70.40;;;;;;5031571;28;20464;-56
2022/05/10 10:23:09;;;;;;;3.00;2.90;;;22.50;70.70;;;;;;5031651;28;20449;-57
2022/05/10 10:25:40;;;;;;;2.90;2.80;;;22.50;70.50;;;;;;5034753;28;20826;-56
2022/05/10 10:28:25;;;;;;;2.40;2.30;;;22.50;70.70;;;;;;5035664;28;20456;-55
2022/05/10 10:30:55;;;;;;;2.67;2.47;;;22.50;70.20;;;;;;5035533;28;20491;-56
2022/05/10 10:33:30;;;;;;;2.40;2.30;;;22.50;70.20;;;;;;5035684;28;20441;-56
2022/05/10 10:36:03;;;;;;;2.10;2.00;;;22.50;70.20;;;;;;5035447;28;20444;-56
2022/05/10 10:38:41;;;;;;;2.80;2.50;;;22.50;70.20;;;;;;5035580;28;20441;-55
2022/05/10 10:41:11;;;;;;;2.37;2.27;;;22.50;70.00;;;;;;5035406;28;20460;-56
2022/05/10 10:43:46;;;;;;;3.20;3.00;;;22.60;70.70;;;;;;5035644;28;20459;-54
2022/05/10 10:46:23;;;;;;;3.03;2.83;;;22.60;70.40;;;;;;5035365;28;20449;-57
2022/05/10 10:48:55;;;;;;;2.60;2.50;;;22.60;70.10;;;;;;5035379;28;20810;-56
2022/05/10 10:51:26;;;;;;;2.50;2.40;;;22.60;70.10;;;;;;5035138;28;20495;-58
2022/05/10 10:53:53;;;;;;;2.67;2.57;;;22.60;69.90;;;;;;5035337;28;20875;-55
2022/05/10 10:56:37;;;;;;;3.17;2.97;;;22.60;70.00;;;;;;5035128;28;20445;-57
2022/05/10 10:59:34;;;;;;;2.30;2.20;;;22.60;70.00;;;;;;5035166;28;20445;-54
2022/05/10 11:02:21;;;;;;;2.50;2.40;;;22.60;70.10;;;;;;5034230;28;20449;-53
2022/05/10 11:05:06;;;;;;;2.23;2.13;;;22.60;69.90;;;;;;5035052;28;20445;-58
2022/05/10 11:07:40;;;;;;;2.27;2.17;;;22.60;69.90;;;;;;5034745;28;20452;-56
2022/05/10 11:10:12;;;;;;;2.50;2.40;;;22.60;70.00;;;;;;5034719;28;20472;-54
2022/05/10 11:12:53;;;;;;;2.63;2.50;;;22.60;69.80;;;;;;5034776;28;20491;-57
2022/05/10 11:15:30;;;;;;;2.37;2.27;;;22.60;70.10;;;;;;5034859;28;20445;-56
2022/05/10 11:18:10;;;;;;;2.37;2.27;;;22.60;69.90;;;;;;5034515;28;20811;-56
2022/05/10 11:20:48;;;;;;;2.40;2.30;;;22.70;70.00;;;;;;5034695;28;20468;-55
2022/05/10 11:23:30;;;;;;;2.20;2.10;;;22.70;70.00;;;;;;5034675;28;20775;-58
2022/05/10 11:26:20;;;;;;;2.47;2.37;;;22.70;69.80;;;;;;5034519;28;20787;-53
2022/05/10 11:29:20;;;;;;;2.53;2.33;;;22.70;69.80;;;;;;5034510;28;20445;-55
2022/05/10 11:32:07;;;;;;;2.27;2.17;;;22.70;69.50;;;;;;5034441;28;21020;-55
2022/05/10 11:35:00;;;;;;;2.10;2.00;;;22.70;69.60;;;;;;5034523;28;20445;-58
2022/05/10 11:37:32;;;;;;;2.50;2.20;;;22.70;69.20;;;;;;5033149;28;20449;-57
2022/05/10 11:40:13;;;;;;;1.97;1.93;;;22.70;69.40;;;;;;5034216;28;20464;-53
2022/05/10 11:42:55;;;;;;;2.07;1.97;;;22.70;69.60;;;;;;5034240;28;20441;-56
2022/05/10 11:45:55;;;;;;;1.90;1.90;;;22.70;69.10;;;;;;5034226;28;20503;-55
2022/05/10 11:48:55;;;;;;;2.53;2.43;;;22.70;69.10;;;;;;5034159;28;20445;-57
2022/05/10 11:51:43;;;;;;;2.23;2.13;;;22.70;69.90;;;;;;5034056;28;20857;-56
2022/05/10 11:54:45;;;;;;;1.70;1.70;;;22.80;69.20;;;;;;5034039;28;20452;-53
2022/05/10 11:57:14;;;;;;;1.97;1.87;;;22.80;69.00;;;;;;5033901;28;20476;-57
2022/05/10 11:59:42;;;;;;;2.30;2.20;;;22.80;69.20;;;;;;5033896;28;20469;-54
2022/05/10 12:02:46;;;;;;;1.77;1.70;;;22.80;69.20;;;;;;5033889;28;20483;-57
2022/05/10 12:05:24;;;;;;;2.07;1.97;;;22.80;69.00;;;;;;5033823;28;20806;-56
2022/05/10 12:07:53;;;;;;;2.20;2.10;;;22.80;69.20;;;;;;5033644;28;20503;-54
2022/05/10 12:10:42;;;;;;;2.80;2.70;;;22.80;68.80;;;;;;5058299;22;20999;-62
2022/05/10 12:13:10;;;;;;;2.17;2.10;;;22.80;69.00;;;;;;5027845;28;20460;-62
2022/05/10 12:21:55;;;;;;;1.70;1.70;;;22.90;68.80;;;;;;5033809;28;20479;-62
2022/05/10 12:24:36;;;;;;;2.30;2.20;;;22.90;68.60;;;;;;5033369;28;20436;-60
2022/05/10 12:27:32;;;;;;;1.60;1.60;;;22.90;68.80;;;;;;5033103;28;20533;-59
2022/05/10 12:30:30;;;;;;;2.17;2.07;;;22.90;68.60;;;;;;5033266;28;20469;-62
2022/05/10 12:32:57;;;;;;;1.70;1.60;;;22.90;68.30;;;;;;5033316;28;20481;-61
2022/05/10 12:36:02;;;;;;;2.00;1.90;;;22.90;68.30;;;;;;5033221;28;20955;-59
2022/05/10 12:38:43;;;;;;;1.80;1.70;;;22.90;68.30;;;;;;5033136;28;20437;-64
2022/05/10 12:41:39;;;;;;;2.10;2.00;;;23.00;68.20;;;;;;5033115;28;20461;-63
2022/05/10 12:44:40;;;;;;;1.67;1.60;;;23.00;68.10;;;;;;5033032;28;20445;-63
2022/05/10 12:47:21;;;;;;;1.97;1.87;;;23.00;68.80;;;;;;5032686;28;20520;-61
2022/05/10 12:50:02;;;;;;;1.90;1.80;;;23.00;67.80;;;;;;5032926;28;20468;-63
2022/05/10 12:52:40;;;;;;;1.57;1.57;;;23.00;67.80;;;;;;5032762;28;20484;-62
2022/05/10 12:55:10;;;;;;;2.07;1.97;;;23.00;68.20;;;;;;5032745;28;20444;-62
2022/05/10 12:57:44;;;;;;;1.50;1.50;;;23.00;68.20;;;;;;5032766;28;20450;-62
2022/05/10 13:00:14;;;;;;;2.40;2.30;;;23.00;68.30;;;;;;5032680;28;20970;-62
2022/05/10 13:02:46;;;;;;;2.20;2.10;;;23.00;68.10;;;;;;5032686;28;20847;-60
2022/05/10 13:05:19;;;;;;;2.13;1.93;;;23.00;68.20;;;;;;5032754;28;20453;-58
2022/05/10 13:08:15;;;;;;;1.70;1.70;;;23.00;68.10;;;;;;5032523;28;20441;-63
2022/05/10 13:10:42;;;;;;;3.07;2.87;;;23.00;67.80;;;;;;5032448;28;20484;-64
2022/05/10 13:13:16;;;;;;;1.83;1.73;;;23.10;68.30;;;;;;5032426;28;20492;-63
2022/05/10 13:15:45;;;;;;;1.80;1.80;;;23.10;68.30;;;;;;5032441;28;20499;-63
2022/05/10 13:18:17;;;;;;;1.80;1.80;;;23.10;68.30;;;;;;5032290;28;20519;-63
2022/05/10 13:20:47;;;;;;;1.50;1.50;;;23.10;68.10;;;;;;5032229;28;20476;-63
2022/05/10 13:23:14;;;;;;;1.93;1.83;;;23.10;68.10;;;;;;5032407;28;20810;-63
2022/05/10 13:25:43;;;;;;;2.13;2.07;;;23.10;68.30;;;;;;5032151;28;20468;-64
2022/05/10 13:28:13;;;;;;;2.20;2.10;;;23.10;68.40;;;;;;5032268;28;20441;-63